Americus, KS

5:48 PM CST on February 19, 2017 (GMT -0600)
30th & Graphic Arts Rd | | Change Station

Elev 1180 ft 38.44 °N, 96.23 °W | Updated 3 minutes ago

Partly Cloudy
Partly Cloudy
62.6 °F
Feels Like 62.6 °F
N
9.0
Wind Variable Wind from SSW
Gusts 14.0 mph

Today
High -- | Low -- °F
--% Chance of Precip.
Yesterday
High -- | Low -- °F
Precip. -- in
Pressure 29.88 in
Visibility 9.0 miles
Clouds Clear
Dew Point 55 °F
Humidity 77%
Rainfall 0.00 in
Snow Depth Not available.
7:10 AM 6:07 PM
Last Quarter, 39% visible
METAR KEMP 192253Z AUTO 17010KT 9SM CLR 17/12 A2986 RMK AO2 SLP116 T01720122
Pressure 29.88 in
Visibility 9.0 miles
Clouds Clear
Dew Point 55 °F
Humidity 77%
Rainfall 0.00 in
Snow Depth Not available.
7:10 AM 6:07 PM
Last Quarter, 39% visible
METAR KEMP 192253Z AUTO 17010KT 9SM CLR 17/12 A2986 RMK AO2 SLP116 T01720122

Get Your Daily Forecast Email!

Thanks for signing up!

Be on the lookout for a verification email in your inbox.

You'll start receiving the daily forecast at 8 AM.

×

10-Day Weather Forecast

Almanac

Astronomy

Feb. 19, 2017 Rise Set
Actual Time
Civil Twilight
Nautical Twilight
Astronomical Twilight
Moon
Length of Visible Light
Length of Day
Tomorrow will be .
, % of the Moon is Illuminated

Today's Extremes

State Highs State Lows

Community

WunderPhotos

Upload Photos

1,962,540 photos uploaded!

WunderBlog® & News

Nearby

Air Quality

  Air Quality AQ Index Pollutant
Not available.

Snow Depth

Station Depth Elevation

Earthquake Activity

City Distance Mag. Time & Date
Minimum magnitude displayed is 2.5.

Coastal Water Temperatures

Place Temperature

Stations

Nearby Weather Stations

Station Location Temp. Windchill Dew Point Humidity Wind Precip. Elev Updated Type
                   

Watches & Warnings

There are currently no watches in effect.